Time;durP1;ratioP1;P1;durP2;ratioP2;P2;SDS_P1;SDS_P2;PMS_P1;PMS_P2;Temp;Humidity;BMP_temperature;BMP_pressure;BME280_temperature;BME280_humidity;BME280_pressure;Samples;Min_cycle;Max_cycle;Signal;HPM_P1;HPM_P2
2022/07/24 00:01:45;;;;;;;;;;;;;;;18.17;52.50;100820.47;5038553;28;1894;-52
2022/07/24 00:04:10;;;;;;;;;;;;;;;14.84;60.81;100823.09;5043134;28;1069;-50
2022/07/24 00:06:36;;;;;;;;;;;;;;;18.21;56.55;100829.81;5038941;28;1152;-52
2022/07/24 00:09:02;;;;;;;;;;;;;;;17.76;58.41;100814.00;5039007;28;1029;-53
2022/07/24 00:11:27;;;;;;;;;;;;;;;15.72;61.57;100825.38;5038718;28;1172;-53
2022/07/24 00:13:53;;;;;;;;;;;;;;;17.61;55.80;100816.81;5037364;28;850;-55
2022/07/24 00:16:18;;;;;;;;;;;;;;;15.58;61.58;100818.69;5039461;28;1045;-53
2022/07/24 00:18:43;;;;;;;;;;;;;;;17.01;60.16;100822.13;5039726;28;1184;-53
2022/07/24 00:21:09;;;;;;;;;;;;;;;19.02;56.53;100824.06;5039439;28;1100;-55
2022/07/24 00:23:34;;;;;;;;;;;;;;;15.03;65.09;100827.09;5038736;28;1906;-53
2022/07/24 00:26:00;;;;;;;;;;;;;;;16.82;55.69;100819.91;5037986;28;1210;-55
2022/07/24 00:28:25;;;;;;;;;;;;;;;17.04;52.87;100816.09;5037973;28;982;-53
2022/07/24 00:30:51;;;;;;;;;;;;;;;17.16;51.14;100815.81;5047944;28;958;-53
2022/07/24 00:33:16;;;;;;;;;;;;;;;17.21;50.42;100808.38;5041298;28;1065;-55
2022/07/24 00:35:43;;;;;;;;;;;;;;;18.04;52.81;100803.47;5038812;28;1018;-54
2022/07/24 00:38:08;;;;;;;;;;;;;;;14.76;60.46;100802.53;5033856;28;1018;-54
2022/07/24 00:40:34;;;;;;;;;;;;;;;17.74;57.09;100801.63;5038346;28;978;-55
2022/07/24 00:43:00;;;;;;;;;;;;;;;17.58;57.58;100781.63;5037981;28;1886;-55
2022/07/24 00:45:25;;;;;;;;;;;;;;;15.70;62.18;100791.09;5040784;28;1061;-54
2022/07/24 00:47:51;;;;;;;;;;;;;;;18.67;57.46;100793.72;5038967;28;1148;-55
2022/07/24 00:50:17;;;;;;;;;;;;;;;15.56;62.54;100790.75;5037260;28;843;-55
2022/07/24 00:52:43;;;;;;;;;;;;;;;17.35;60.30;100786.66;5037621;28;1200;-53
2022/07/24 00:55:09;;;;;;;;;;;;;;;18.56;57.09;100786.66;5038273;28;958;-55
2022/07/24 00:57:34;;;;;;;;;;;;;;;15.28;64.18;100787.28;5036735;28;1045;-55
2022/07/24 01:00:00;;;;;;;;;;;;;;;18.45;58.85;100781.22;5037690;28;1235;-53
2022/07/24 01:02:25;;;;;;;;;;;;;;;16.12;62.57;100776.44;5038447;28;1910;-53
2022/07/24 01:04:51;;;;;;;;;;;;;;;16.45;59.98;100771.56;5037935;28;1089;-54
2022/07/24 01:07:16;;;;;;;;;;;;;;;18.38;57.99;100769.69;5037744;28;1068;-53
2022/07/24 01:09:42;;;;;;;;;;;;;;;14.72;65.06;100768.53;5037748;28;1022;-55
2022/07/24 01:12:07;;;;;;;;;;;;;;;16.63;55.93;100766.63;5019821;28;982;-56
2022/07/24 01:14:33;;;;;;;;;;;;;;;18.03;56.38;100768.81;5037134;28;1116;-55
2022/07/24 01:16:58;;;;;;;;;;;;;;;17.55;54.38;100765.72;5037302;28;1234;-53
2022/07/24 01:19:23;;;;;;;;;;;;;;;17.48;52.69;100766.00;5040858;28;1441;-55
2022/07/24 01:21:49;;;;;;;;;;;;;;;17.39;51.64;100760.25;5037102;28;1981;-54
2022/07/24 01:24:15;;;;;;;;;;;;;;;17.34;50.33;100752.03;5037579;28;1180;-52
2022/07/24 01:26:40;;;;;;;;;;;;;;;17.35;49.98;100744.59;5036976;28;1072;-54
2022/07/24 01:29:06;;;;;;;;;;;;;;;17.22;55.35;100755.09;5037000;28;1120;-53
2022/07/24 01:31:31;;;;;;;;;;;;;;;16.35;59.27;100755.91;5037113;28;1037;-55
2022/07/24 01:33:57;;;;;;;;;;;;;;;18.88;55.78;100749.50;5036963;28;1077;-53
2022/07/24 01:36:22;;;;;;;;;;;;;;;15.73;62.67;100752.97;5042832;28;986;-54
2022/07/24 01:38:48;;;;;;;;;;;;;;;16.57;57.60;100758.41;5036693;28;1051;-52
2022/07/24 01:41:14;;;;;;;;;;;;;;;17.18;53.31;100748.50;5036678;28;1227;-56
2022/07/24 01:43:39;;;;;;;;;;;;;;;17.27;51.46;100744.06;5036785;28;1979;-55
2022/07/24 01:46:05;;;;;;;;;;;;;;;17.26;50.42;100733.34;5037218;28;1267;-51
2022/07/24 01:48:30;;;;;;;;;;;;;;;17.25;49.99;100737.19;5037241;28;1013;-54
2022/07/24 01:50:56;;;;;;;;;;;;;;;16.79;55.86;100735.34;5036710;28;1119;-54
2022/07/24 01:53:21;;;;;;;;;;;;;;;16.54;59.38;100736.19;5037888;28;1151;-54
2022/07/24 01:55:49;;;;;;;;;;;;;;;18.95;56.10;100738.97;5019023;28;1065;-53
2022/07/24 01:58:14;;;;;;;;;;;;;;;15.47;62.91;100734.78;5037095;28;1133;-54
2022/07/24 02:00:40;;;;;;;;;;;;;;;17.86;59.36;100738.06;5037065;28;1014;-54
2022/07/24 02:03:05;;;;;;;;;;;;;;;18.46;57.84;100730.53;5036533;28;1910;-52
2022/07/24 02:05:31;;;;;;;;;;;;;;;15.50;63.82;100731.50;5036541;28;1084;-55
2022/07/24 02:07:57;;;;;;;;;;;;;;;18.68;58.55;100726.53;5036563;28;1058;-55
2022/07/24 02:10:23;;;;;;;;;;;;;;;16.00;62.93;100732.78;5036423;28;1041;-52
2022/07/24 02:12:48;;;;;;;;;;;;;;;16.77;60.36;100727.38;5037013;28;1009;-55
2022/07/24 02:15:14;;;;;;;;;;;;;;;18.78;58.12;100722.84;5036674;28;1132;-55
2022/07/24 02:17:39;;;;;;;;;;;;;;;15.28;65.11;100723.44;5036686;28;1065;-53
2022/07/24 02:20:05;;;;;;;;;;;;;;;18.49;59.45;100725.59;5022881;28;1645;-55
2022/07/24 02:22:30;;;;;;;;;;;;;;;16.54;62.54;100727.94;5036534;28;1906;-55
2022/07/24 02:24:56;;;;;;;;;;;;;;;16.43;62.24;100722.44;5036479;28;994;-55
2022/07/24 02:27:21;;;;;;;;;;;;;;;18.97;58.67;100731.22;5040009;28;1136;-54
2022/07/24 02:29:47;;;;;;;;;;;;;;;15.08;64.29;100730.44;5036217;28;1140;-54
2022/07/24 02:32:12;;;;;;;;;;;;;;;18.15;61.12;100729.94;5036092;28;1128;-55
2022/07/24 02:34:37;;;;;;;;;;;;;;;17.16;61.92;100717.72;5036311;28;1045;-55
2022/07/24 02:37:03;;;;;;;;;;;;;;;15.94;62.70;100728.41;5036678;28;983;-55
2022/07/24 02:39:28;;;;;;;;;;;;;;;17.02;55.41;100722.97;5036270;28;1001;-55
2022/07/24 02:41:54;;;;;;;;;;;;;;;17.24;53.08;100724.56;5036555;28;1977;-53
2022/07/24 02:44:19;;;;;;;;;;;;;;;17.29;51.46;100721.78;5035955;28;1009;-55
2022/07/24 02:46:45;;;;;;;;;;;;;;;17.35;50.58;100715.19;5036354;28;1057;-56
2022/07/24 02:49:10;;;;;;;;;;;;;;;16.33;56.99;100721.63;5035672;28;1088;-54
2022/07/24 02:51:35;;;;;;;;;;;;;;;16.80;59.55;100716.94;5040448;28;911;-53
2022/07/24 02:54:01;;;;;;;;;;;;;;;18.91;57.48;100711.16;5036072;28;1069;-55
2022/07/24 02:56:26;;;;;;;;;;;;;;;15.38;63.81;100723.50;5035758;28;1002;-55
2022/07/24 02:58:52;;;;;;;;;;;;;;;17.89;60.59;100712.75;5036417;28;1129;-54
2022/07/24 03:01:17;;;;;;;;;;;;;;;18.06;59.74;100718.72;5037556;28;1223;-55
2022/07/24 03:03:43;;;;;;;;;;;;;;;15.57;63.60;100715.63;5039972;28;1918;-54
2022/07/24 03:06:08;;;;;;;;;;;;;;;18.51;59.84;100715.94;5036270;28;1073;-54
2022/07/24 03:08:33;;;;;;;;;;;;;;;15.78;63.89;100712.97;5040580;28;1120;-55
2022/07/24 03:10:59;;;;;;;;;;;;;;;16.46;59.25;100701.03;5035396;28;1031;-54
2022/07/24 03:13:24;;;;;;;;;;;;;;;17.18;53.94;100700.94;5039460;28;1089;-54
2022/07/24 03:15:50;;;;;;;;;;;;;;;17.31;52.08;100707.78;5032933;28;938;-57
2022/07/24 03:18:15;;;;;;;;;;;;;;;17.99;54.29;100707.19;5035864;28;1033;-55
2022/07/24 03:20:40;;;;;;;;;;;;;;;15.08;61.48;100707.72;5041038;28;1200;-55
2022/07/24 03:23:06;;;;;;;;;;;;;;;17.90;59.08;100711.63;5039747;28;1979;-53
2022/07/24 03:25:31;;;;;;;;;;;;;;;18.42;58.33;100699.19;5039409;28;1026;-56
2022/07/24 03:27:57;;;;;;;;;;;;;;;15.43;64.49;100711.72;5039440;28;1005;-54
2022/07/24 03:30:22;;;;;;;;;;;;;;;17.03;55.47;100707.31;5040143;28;1033;-55
2022/07/24 03:32:47;;;;;;;;;;;;;;;17.19;52.83;100708.09;5039860;28;1140;-56
2022/07/24 03:35:13;;;;;;;;;;;;;;;17.30;51.53;100712.44;5039422;28;1009;-56
2022/07/24 03:37:38;;;;;;;;;;;;;;;17.83;52.80;100708.38;5039434;28;1160;-56
2022/07/24 03:40:04;;;;;;;;;;;;;;;15.34;60.71;100712.25;5038957;28;856;-56
2022/07/24 03:42:30;;;;;;;;;;;;;;;17.53;58.62;100710.16;5039401;28;1981;-56
2022/07/24 03:44:55;;;;;;;;;;;;;;;19.06;56.53;100710.19;5039719;28;1021;-56
2022/07/24 03:47:20;;;;;;;;;;;;;;;15.24;65.04;100717.69;5039139;28;1056;-55
2022/07/24 03:49:46;;;;;;;;;;;;;;;16.91;55.75;100711.19;5038003;28;1128;-56
2022/07/24 03:52:11;;;;;;;;;;;;;;;17.13;52.79;100714.72;5036399;28;902;-58
2022/07/24 03:54:37;;;;;;;;;;;;;;;17.23;51.29;100707.25;5039092;28;1152;-56
2022/07/24 03:57:02;;;;;;;;;;;;;;;18.32;54.24;100710.28;5031909;28;1580;-56
2022/07/24 03:59:28;;;;;;;;;;;;;;;14.72;63.11;100716.53;5037655;28;1393;-57
2022/07/24 04:01:53;;;;;;;;;;;;;;;18.08;57.82;100716.50;5038734;28;1906;-58
2022/07/24 04:04:19;;;;;;;;;;;;;;;17.38;60.23;100711.88;5038066;28;2438;-57
2022/07/24 04:06:44;;;;;;;;;;;;;;;15.85;61.79;100719.03;5042114;28;1876;-56
2022/07/24 04:09:09;;;;;;;;;;;;;;;17.22;55.83;100710.28;5035062;28;1997;-55
2022/07/24 04:11:35;;;;;;;;;;;;;;;16.82;59.20;100709.25;5044251;28;2083;-56
2022/07/24 04:14:00;;;;;;;;;;;;;;;16.27;61.89;100711.72;5043607;28;2138;-57
2022/07/24 04:16:26;;;;;;;;;;;;;;;18.84;57.84;100707.91;5043069;28;1872;-57
2022/07/24 04:18:51;;;;;;;;;;;;;;;15.37;63.42;100714.44;5048432;28;2030;-58
2022/07/24 04:21:17;;;;;;;;;;;;;;;16.66;57.17;100713.91;5040330;28;1005;-57
2022/07/24 04:23:42;;;;;;;;;;;;;;;17.82;56.58;100713.03;5038408;28;2223;-57
2022/07/24 04:26:08;;;;;;;;;;;;;;;15.42;62.22;100712.81;5038537;28;1022;-56
2022/07/24 04:28:33;;;;;;;;;;;;;;;17.17;60.21;100704.81;5038493;28;891;-58
2022/07/24 04:30:58;;;;;;;;;;;;;;;18.75;57.42;100718.75;5038624;28;1109;-58
2022/07/24 04:33:24;;;;;;;;;;;;;;;15.14;65.21;100712.16;5038577;28;1080;-56
2022/07/24 04:35:49;;;;;;;;;;;;;;;16.83;55.64;100714.47;5038600;28;1475;-57
2022/07/24 04:38:15;;;;;;;;;;;;;;;17.09;53.16;100712.50;5043600;28;1025;-56
2022/07/24 04:40:40;;;;;;;;;;;;;;;17.13;51.71;100707.28;5033387;28;883;-57
2022/07/24 04:43:06;;;;;;;;;;;;;;;17.10;50.90;100714.16;5038355;28;1894;-57
2022/07/24 04:45:31;;;;;;;;;;;;;;;18.31;53.83;100719.66;5038187;28;1097;-57
2022/07/24 04:47:57;;;;;;;;;;;;;;;14.70;62.42;100716.81;5038069;28;1373;-55
2022/07/24 04:50:22;;;;;;;;;;;;;;;18.23;57.75;100712.00;5040336;28;2804;-58
2022/07/24 04:52:53;;;;;;;;;;;;;;;17.34;60.20;100715.47;5038662;28;1057;-58
2022/07/24 04:55:18;;;;;;;;;;;;;;;16.15;64.09;100709.25;5038235;28;1049;-58
2022/07/24 04:57:44;;;;;;;;;;;;;;;19.02;57.91;100713.84;5038212;28;974;-59
2022/07/24 05:00:10;;;;;;;;;;;;;;;15.67;64.06;100715.69;5043457;28;1081;-58
2022/07/24 05:02:36;;;;;;;;;;;;;;;16.62;58.70;100715.56;5038339;28;1979;-58
2022/07/24 05:05:01;;;;;;;;;;;;;;;17.19;54.20;100721.84;5037387;28;1528;-59
2022/07/24 05:07:26;;;;;;;;;;;;;;;17.33;52.28;100719.31;5038193;28;1109;-59
2022/07/24 05:09:52;;;;;;;;;;;;;;;17.35;51.25;100720.69;5037345;28;1017;-59
2022/07/24 05:12:17;;;;;;;;;;;;;;;17.23;50.80;100722.91;5037731;28;1077;-58
2022/07/24 05:14:43;;;;;;;;;;;;;;;17.26;50.32;100719.59;5037569;28;1006;-58
2022/07/24 05:17:08;;;;;;;;;;;;;;;17.26;49.84;100728.69;5038462;28;896;-58
2022/07/24 05:19:34;;;;;;;;;;;;;;;17.33;49.34;100728.38;5040510;28;2504;-58
2022/07/24 05:21:59;;;;;;;;;;;;;;;17.75;50.78;100718.03;5037572;28;1902;-59
2022/07/24 05:24:24;;;;;;;;;;;;;;;15.36;58.94;100721.03;5039310;28;1038;-58
2022/07/24 05:26:50;;;;;;;;;;;;;;;17.60;57.15;100722.50;5037750;28;946;-59
2022/07/24 05:29:16;;;;;;;;;;;;;;;19.09;55.53;100717.88;5037426;28;1191;-59
2022/07/24 05:31:41;;;;;;;;;;;;;;;15.04;64.67;100723.88;5037609;28;1018;-58
2022/07/24 05:34:06;;;;;;;;;;;;;;;17.61;57.93;100715.91;5039466;28;1081;-58
2022/07/24 05:36:32;;;;;;;;;;;;;;;16.12;62.28;100724.31;5023021;28;1076;-59
2022/07/24 05:38:57;;;;;;;;;;;;;;;16.32;58.89;100709.81;5037527;28;1058;-58
2022/07/24 05:41:23;;;;;;;;;;;;;;;17.12;53.76;100721.31;5037076;28;1227;-59
2022/07/24 05:43:48;;;;;;;;;;;;;;;17.20;52.20;100718.00;5039301;28;1909;-57
2022/07/24 05:46:14;;;;;;;;;;;;;;;17.22;51.46;100719.38;5037179;28;1208;-58
2022/07/24 05:48:39;;;;;;;;;;;;;;;17.38;51.67;100719.31;5036306;28;2580;-58
2022/07/24 05:51:04;;;;;;;;;;;;;;;18.92;52.50;100729.34;5036825;28;1180;-59
2022/07/24 05:53:30;;;;;;;;;;;;;;;18.52;53.46;100722.25;5036068;28;1165;-58
2022/07/24 05:55:55;;;;;;;;;;;;;;;18.22;54.38;100718.63;5037187;28;1084;-59
2022/07/24 05:58:21;;;;;;;;;;;;;;;18.11;55.00;100724.19;5018877;28;1236;-59
2022/07/24 06:00:46;;;;;;;;;;;;;;;18.01;55.20;100718.75;5037391;28;1144;-59
2022/07/24 06:03:12;;;;;;;;;;;;;;;17.99;55.56;100723.69;5040848;28;1971;-59
2022/07/24 06:05:37;;;;;;;;;;;;;;;17.92;55.62;100718.53;5036570;28;1050;-59
2022/07/24 06:08:03;;;;;;;;;;;;;;;17.90;55.78;100720.72;5036559;28;1029;-58
2022/07/24 06:10:28;;;;;;;;;;;;;;;17.85;56.04;100709.75;5036910;28;1100;-58
2022/07/24 06:12:54;;;;;;;;;;;;;;;17.83;55.78;100698.19;5037470;28;1029;-59
2022/07/24 06:15:19;;;;;;;;;;;;;;;17.82;56.08;100692.97;5036765;28;1239;-59
2022/07/24 06:17:45;;;;;;;;;;;;;;;17.77;56.05;100691.91;5036779;28;879;-59
2022/07/24 06:20:12;;;;;;;;;;;;;;;17.72;56.33;100697.41;5038102;28;2473;-60
2022/07/24 06:22:38;;;;;;;;;;;;;;;17.69;56.35;100713.69;5036382;28;1976;-59
2022/07/24 06:25:04;;;;;;;;;;;;;;;17.68;56.40;100701.03;5036236;28;1065;-59
2022/07/24 06:27:29;;;;;;;;;;;;;;;17.67;56.53;100705.72;5036371;28;887;-59
2022/07/24 06:29:55;;;;;;;;;;;;;;;17.60;56.44;100702.47;5041694;28;879;-58
2022/07/24 06:32:20;;;;;;;;;;;;;;;17.64;56.62;100705.44;5035980;28;997;-59
2022/07/24 06:34:45;;;;;;;;;;;;;;;17.58;56.66;100701.91;5035547;28;1290;-57
2022/07/24 06:37:11;;;;;;;;;;;;;;;17.57;56.80;100701.09;5036069;28;1184;-57
2022/07/24 06:39:36;;;;;;;;;;;;;;;17.53;56.57;100694.50;5036566;28;1248;-58
2022/07/24 06:42:02;;;;;;;;;;;;;;;17.51;56.89;100701.38;5035960;28;1914;-58
2022/07/24 06:44:28;;;;;;;;;;;;;;;17.51;56.59;100699.44;5035958;28;1255;-59
2022/07/24 06:46:53;;;;;;;;;;;;;;;17.52;56.79;100703.03;5035684;28;1220;-58
2022/07/24 06:49:18;;;;;;;;;;;;;;;17.48;56.97;100702.78;5019199;28;1886;-58
2022/07/24 06:51:44;;;;;;;;;;;;;;;17.47;56.99;100692.06;5035808;28;1309;-58
2022/07/24 06:54:09;;;;;;;;;;;;;;;17.48;56.74;100685.47;5035643;28;1227;-60
2022/07/24 06:56:35;;;;;;;;;;;;;;;17.46;56.76;100685.75;5040075;28;1306;-58
2022/07/24 06:59:01;;;;;;;;;;;;;;;17.42;57.07;100687.41;5040013;28;1207;-59
2022/07/24 07:01:26;;;;;;;;;;;;;;;17.42;57.13;100677.22;5039904;28;1310;-60
2022/07/24 07:03:53;;;;;;;;;;;;;;;17.43;56.92;100670.63;5039749;28;1910;-60
2022/07/24 07:06:18;;;;;;;;;;;;;;;17.42;56.88;100670.91;5039453;28;1109;-59
2022/07/24 07:08:43;;;;;;;;;;;;;;;17.39;57.08;100672.31;5039876;28;1133;-60
2022/07/24 07:11:09;;;;;;;;;;;;;;;17.42;56.81;100668.16;5039618;28;1062;-59
2022/07/24 07:13:35;;;;;;;;;;;;;;;17.38;56.98;100667.91;5045063;28;1310;-59
2022/07/24 07:16:00;;;;;;;;;;;;;;;17.37;57.05;100663.50;5040094;28;1018;-59
2022/07/24 07:18:25;;;;;;;;;;;;;;;17.35;57.07;100664.88;5040006;28;2588;-59
2022/07/24 07:20:53;;;;;;;;;;;;;;;17.34;57.16;100668.75;5040436;28;1243;-60
2022/07/24 07:23:20;;;;;;;;;;;;;;;17.39;56.95;100666.81;5039730;28;1914;-57
2022/07/24 07:25:46;;;;;;;;;;;;;;;17.34;57.29;100666.81;5039747;28;1005;-57
2022/07/24 07:28:11;;;;;;;;;;;;;;;17.37;57.09;100668.19;5039689;28;998;-58
2022/07/24 07:30:37;;;;;;;;;;;;;;;17.32;57.27;100676.44;5039579;28;1068;-58
2022/07/24 07:33:02;;;;;;;;;;;;;;;17.30;57.24;100667.66;5039414;28;1244;-57
2022/07/24 07:35:28;;;;;;;;;;;;;;;17.35;57.09;100671.22;5039333;28;1283;-57
2022/07/24 07:37:53;;;;;;;;;;;;;;;17.31;57.30;100664.63;5039384;28;1199;-56
2022/07/24 07:40:18;;;;;;;;;;;;;;;17.31;57.14;100659.13;5039152;28;1251;-56
2022/07/24 07:42:44;;;;;;;;;;;;;;;17.24;57.38;100662.19;5039038;28;1917;-57
2022/07/24 07:45:09;;;;;;;;;;;;;;;17.27;57.41;100658.88;5038716;28;1350;-57
2022/07/24 07:47:36;;;;;;;;;;;;;;;17.30;57.21;100657.50;5039106;28;1263;-56
2022/07/24 07:50:02;;;;;;;;;;;;;;;17.31;57.19;100661.88;5038882;28;2399;-56
2022/07/24 07:52:27;;;;;;;;;;;;;;;17.28;57.27;100657.78;5038945;28;1255;-55
2022/07/24 07:54:53;;;;;;;;;;;;;;;17.33;57.20;100659.66;5039023;28;1235;-58
2022/07/24 07:57:18;;;;;;;;;;;;;;;17.28;57.16;100646.78;5038977;28;1325;-58
2022/07/24 07:59:44;;;;;;;;;;;;;;;17.27;57.31;100647.88;5038648;28;1259;-59
2022/07/24 08:02:09;;;;;;;;;;;;;;;17.27;57.39;100645.13;5053724;28;1917;-59
2022/07/24 08:04:35;;;;;;;;;;;;;;;17.30;57.30;100641.00;5055765;28;1266;-57
2022/07/24 08:07:00;;;;;;;;;;;;;;;17.31;57.25;100642.66;5037828;28;1133;-58
2022/07/24 08:09:26;;;;;;;;;;;;;;;17.30;57.09;100640.19;5038758;28;1077;-58
2022/07/24 08:11:51;;;;;;;;;;;;;;;17.26;57.34;100650.91;5038619;28;1366;-59
2022/07/24 08:14:16;;;;;;;;;;;;;;;17.31;57.37;100641.84;5038517;28;1073;-57
2022/07/24 08:16:42;;;;;;;;;;;;;;;17.27;57.36;100630.56;5038322;28;1132;-58
2022/07/24 08:19:07;;;;;;;;;;;;;;;17.29;57.22;100639.34;5042976;28;2419;-58
2022/07/24 08:21:33;;;;;;;;;;;;;;;17.27;57.38;100636.06;5053691;28;1298;-58
2022/07/24 08:23:58;;;;;;;;;;;;;;;17.27;57.43;100633.31;5053940;28;1893;-59
2022/07/24 08:26:24;;;;;;;;;;;;;;;17.28;57.41;100635.78;5054448;28;1297;-58
2022/07/24 08:28:49;;;;;;;;;;;;;;;17.29;57.31;100639.34;5053265;28;1258;-59
2022/07/24 08:31:15;;;;;;;;;;;;;;;17.28;57.34;100637.72;5038381;28;1239;-58
2022/07/24 08:33:40;;;;;;;;;;;;;;;17.29;57.39;100639.34;5038438;28;1236;-59
2022/07/24 08:36:05;;;;;;;;;;;;;;;17.30;57.25;100634.69;5037859;28;1172;-59
2022/07/24 08:38:31;;;;;;;;;;;;;;;17.29;57.20;100628.34;5038091;28;1377;-59
2022/07/24 08:40:56;;;;;;;;;;;;;;;17.25;57.42;100632.75;5037846;28;1207;-58
2022/07/24 08:43:22;;;;;;;;;;;;;;;17.26;57.49;100627.00;5043526;28;1975;-59
2022/07/24 08:45:48;;;;;;;;;;;;;;;17.27;57.38;100631.38;5053817;28;1192;-61
2022/07/24 08:48:13;;;;;;;;;;;;;;;17.29;57.20;100633.84;5054668;28;1286;-60
2022/07/24 08:50:39;;;;;;;;;;;;;;;17.23;57.55;100624.81;5039440;28;2891;-60
2022/07/24 08:53:05;;;;;;;;;;;;;;;17.30;57.12;100630.00;5037213;28;1220;-58
2022/07/24 08:55:30;;;;;;;;;;;;;;;17.28;57.40;100632.22;5037900;28;1350;-58
2022/07/24 08:57:56;;;;;;;;;;;;;;;17.27;57.43;100628.63;5037680;28;1239;-59
2022/07/24 09:00:22;;;;;;;;;;;;;;;17.27;57.27;100636.06;5035321;28;1442;-60
2022/07/24 09:02:48;;;;;;;;;;;;;;;17.28;57.59;100629.47;5051906;28;1963;-59
2022/07/24 09:05:13;;;;;;;;;;;;;;;17.27;57.34;100636.06;5020153;28;1078;-59
2022/07/24 09:07:38;;;;;;;;;;;;;;;17.22;57.63;100628.69;5037173;28;1033;-58
2022/07/24 09:10:05;;;;;;;;;;;;;;;17.25;57.59;100632.75;5037653;28;1061;-59
2022/07/24 09:12:35;;;;;;;;;;;;;;;17.25;57.41;100625.38;5019622;28;1314;-59
2022/07/24 09:15:00;;;;;;;;;;;;;;;17.25;57.62;100630.03;5037479;28;1132;-59
2022/07/24 09:17:26;;;;;;;;;;;;;;;17.25;57.51;100613.53;5037308;28;1105;-58
2022/07/24 09:19:52;;;;;;;;;;;;;;;17.24;57.70;100620.16;5043941;28;2523;-59
2022/07/24 09:22:37;;;;;;;;;;;;;;;17.24;57.51;100609.97;5052145;28;1906;-60
2022/07/24 09:25:09;;;;;;;;;;;;;;;17.22;57.71;100612.19;5050738;28;1113;-59
2022/07/24 09:27:39;;;;;;;;;;;;;;;17.30;57.27;100621.75;5053317;28;1192;-59
2022/07/24 09:30:05;;;;;;;;;;;;;;;17.28;57.46;100616.56;5046546;28;1219;-59
2022/07/24 09:32:31;;;;;;;;;;;;;;;17.31;57.45;100615.16;5037205;28;1228;-59
2022/07/24 09:34:56;;;;;;;;;;;;;;;17.28;57.71;100604.75;5037050;28;1271;-60
2022/07/24 09:37:22;;;;;;;;;;;;;;;17.22;57.85;100612.19;5036797;28;1302;-61
2022/07/24 09:39:47;;;;;;;;;;;;;;;17.27;57.62;100608.59;5037060;28;1252;-59
2022/07/24 09:42:13;;;;;;;;;;;;;;;17.23;57.71;100608.31;5036514;28;1913;-60
2022/07/24 09:44:38;;;;;;;;;;;;;;;17.21;57.69;100602.31;5034953;28;1279;-61
2022/07/24 09:47:05;;;;;;;;;;;;;;;17.22;57.55;100600.34;5036586;28;1085;-62
2022/07/24 09:49:30;;;;;;;;;;;;;;;17.23;57.78;100607.50;5037071;28;2561;-59
2022/07/24 09:52:05;;;;;;;;;;;;;;;17.24;57.98;100606.41;5036498;28;1227;-61
2022/07/24 09:54:31;;;;;;;;;;;;;;;17.27;57.65;100603.09;5036464;28;1245;-61
2022/07/24 09:57:17;;;;;;;;;;;;;;;17.24;57.72;100614.66;5033907;28;1078;-61
2022/07/24 09:59:47;;;;;;;;;;;;;;;17.26;57.74;100613.28;5025586;28;1651;-62
2022/07/24 10:02:13;;;;;;;;;;;;;;;17.28;57.60;100607.50;5036878;28;1906;-59
2022/07/24 10:04:38;;;;;;;;;;;;;;;17.24;57.88;100618.22;5036522;28;1283;-59
2022/07/24 10:07:04;;;;;;;;;;;;;;;17.24;57.76;100618.22;5018440;28;1164;-60
2022/07/24 10:09:29;;;;;;;;;;;;;;;17.24;57.83;100617.41;5018996;28;1334;-60
2022/07/24 10:11:55;;;;;;;;;;;;;;;17.28;57.92;100615.75;5018916;28;1235;-59
2022/07/24 10:14:21;;;;;;;;;;;;;;;17.26;57.83;100617.94;5018684;28;1227;-60
2022/07/24 10:16:46;;;;;;;;;;;;;;;17.27;57.81;100614.09;5018910;28;1335;-60
2022/07/24 10:19:13;;;;;;;;;;;;;;;17.21;58.00;100609.72;5022824;28;2598;-60
2022/07/24 10:21:38;;;;;;;;;;;;;;;17.24;57.92;100617.41;5033559;28;1346;-59
2022/07/24 10:24:05;;;;;;;;;;;;;;;17.23;57.85;100613.81;5018562;28;1937;-59
2022/07/24 10:26:33;;;;;;;;;;;;;;;17.26;58.00;100612.44;5035665;28;1247;-58
2022/07/24 10:29:01;;;;;;;;;;;;;;;17.23;57.78;100604.75;5033372;28;1243;-63
2022/07/24 10:31:27;;;;;;;;;;;;;;;17.16;57.93;100612.50;5018163;28;1299;-62
2022/07/24 10:33:52;;;;;;;;;;;;;;;17.20;57.90;100602.59;5036245;28;1306;-63
2022/07/24 10:36:20;;;;;;;;;;;;;;;17.20;57.81;100608.88;5033989;28;1156;-63
2022/07/24 10:38:49;;;;;;;;;;;;;;;17.23;57.92;100602.00;5052104;28;1109;-62
2022/07/24 10:41:15;;;;;;;;;;;;;;;17.23;57.95;100604.75;5052449;28;1239;-63
2022/07/24 10:43:40;;;;;;;;;;;;;;;17.23;58.02;100596.53;5037133;28;1914;-63
2022/07/24 10:46:06;;;;;;;;;;;;;;;17.24;58.15;100592.69;5018640;28;1070;-63
2022/07/24 10:48:32;;;;;;;;;;;;;;;17.27;57.95;100600.34;5035448;28;2425;-64
2022/07/24 10:50:58;;;;;;;;;;;;;;;17.23;57.92;100602.81;5049485;28;1057;-62
2022/07/24 10:53:24;;;;;;;;;;;;;;;17.24;58.00;100603.66;5051248;28;1251;-63
2022/07/24 10:55:49;;;;;;;;;;;;;;;17.23;58.14;100597.31;5036839;28;1223;-59
2022/07/24 10:58:15;;;;;;;;;;;;;;;17.23;58.03;100599.25;5017909;28;1180;-58
2022/07/24 11:00:44;;;;;;;;;;;;;;;17.23;57.98;100602.00;5035964;28;1085;-60
2022/07/24 11:03:20;;;;;;;;;;;;;;;17.23;57.95;100596.53;5035717;28;1981;-61
2022/07/24 11:06:05;;;;;;;;;;;;;;;17.22;57.94;100594.88;5035583;28;1120;-61
2022/07/24 11:08:31;;;;;;;;;;;;;;;17.21;57.92;100587.75;5034335;28;1239;-60
2022/07/24 11:10:58;;;;;;;;;;;;;;;17.23;57.96;100593.78;5035869;28;1275;-61
2022/07/24 11:13:43;;;;;;;;;;;;;;;17.23;58.12;100591.03;5035851;28;1243;-61
2022/07/24 11:16:15;;;;;;;;;;;;;;;17.20;58.13;100591.59;5034157;28;1993;-60
2022/07/24 11:18:41;;;;;;;;;;;;;;;17.21;58.21;100588.56;5036439;28;2672;-61
2022/07/24 11:21:07;;;;;;;;;;;;;;;17.19;58.12;100584.44;5051229;28;1333;-61
2022/07/24 11:23:32;;;;;;;;;;;;;;;17.23;58.05;100580.03;5051515;28;1906;-61
2022/07/24 11:26:21;;;;;;;;;;;;;;;17.23;58.12;100585.53;5041812;28;1202;-61
2022/07/24 11:29:05;;;;;;;;;;;;;;;17.23;58.15;100585.53;5021251;28;1133;-60
2022/07/24 11:31:31;;;;;;;;;;;;;;;17.17;58.17;100584.72;5034546;28;1204;-61
2022/07/24 11:33:57;;;;;;;;;;;;;;;17.20;58.03;100586.09;5017799;28;1390;-63
2022/07/24 11:36:22;;;;;;;;;;;;;;;17.19;58.08;100584.44;5017726;28;1291;-59
2022/07/24 11:38:47;;;;;;;;;;;;;;;17.17;58.33;100581.19;5035517;28;1244;-59
2022/07/24 11:41:13;;;;;;;;;;;;;;;17.19;58.08;100578.94;5035506;28;1330;-59
2022/07/24 11:43:51;;;;;;;;;;;;;;;17.21;58.09;100587.75;5038817;28;1979;-57
2022/07/24 11:46:31;;;;;;;;;;;;;;;17.22;58.15;100583.88;5039134;28;1370;-58
2022/07/24 11:49:04;;;;;;;;;;;;;;;17.21;58.16;100588.56;5041746;28;2439;-59
2022/07/24 11:51:29;;;;;;;;;;;;;;;17.20;58.19;100583.34;5054947;28;1231;-62
2022/07/24 11:53:56;;;;;;;;;;;;;;;17.18;58.00;100574.56;5054561;28;1275;-61
2022/07/24 11:56:21;;;;;;;;;;;;;;;17.19;58.10;100576.19;5052551;28;1278;-59
2022/07/24 11:58:46;;;;;;;;;;;;;;;17.19;58.25;100574.25;5037716;28;1247;-61
2022/07/24 12:01:21;;;;;;;;;;;;;;;17.20;58.16;100561.38;5055950;28;1191;-58
2022/07/24 12:03:53;;;;;;;;;;;;;;;17.18;58.08;100567.16;5053363;28;1934;-61
2022/07/24 12:06:19;;;;;;;;;;;;;;;17.17;58.12;100570.19;5043271;28;1101;-59
2022/07/24 12:08:44;;;;;;;;;;;;;;;17.15;57.99;100572.38;5052182;28;1024;-60
2022/07/24 12:11:10;;;;;;;;;;;;;;;17.14;58.24;100559.72;5054110;28;1266;-59
2022/07/24 12:13:39;;;;;;;;;;;;;;;17.14;58.15;100568.81;5037323;28;1357;-60
2022/07/24 12:16:05;;;;;;;;;;;;;;;17.14;58.28;100566.06;5052559;28;1199;-59
2022/07/24 12:18:30;;;;;;;;;;;;;;;17.19;58.16;100559.72;5051225;28;2553;-57
2022/07/24 12:20:59;;;;;;;;;;;;;;;17.18;58.10;100560.81;5055491;28;1243;-57
2022/07/24 12:23:25;;;;;;;;;;;;;;;17.15;58.27;100573.19;5045420;28;1977;-59
2022/07/24 12:25:50;;;;;;;;;;;;;;;17.19;58.06;100570.72;5038491;28;1273;-61
2022/07/24 12:28:18;;;;;;;;;;;;;;;17.15;58.21;100559.44;5038560;28;1303;-60
2022/07/24 12:30:50;;;;;;;;;;;;;;;17.16;57.87;100571.28;5038110;28;1239;-59
2022/07/24 12:33:17;;;;;;;;;;;;;;;17.12;58.23;100565.50;5034163;28;1350;-60
2022/07/24 12:35:54;;;;;;;;;;;;;;;17.16;58.12;100566.59;5052745;28;1322;-58
2022/07/24 12:38:26;;;;;;;;;;;;;;;17.13;58.21;100564.41;5053190;28;1064;-57
2022/07/24 12:41:00;;;;;;;;;;;;;;;17.15;57.97;100562.19;5053363;28;1170;-58
2022/07/24 12:43:28;;;;;;;;;;;;;;;17.16;57.73;100560.28;5047353;28;1913;-58